createdAt,value
2022-10-10T00:01:15.382Z,6.60
2022-10-10T00:03:43.368Z,6.13
2022-10-10T00:06:12.169Z,6.20
2022-10-10T00:08:41.689Z,6.17
2022-10-10T00:11:09.608Z,6.20
2022-10-10T00:13:37.560Z,6.10
2022-10-10T00:16:05.750Z,6.30
2022-10-10T00:18:34.133Z,5.90
2022-10-10T00:21:02.005Z,6.03
2022-10-10T00:23:29.893Z,5.73
2022-10-10T00:25:59.081Z,6.07
2022-10-10T00:28:27.298Z,6.03
2022-10-10T00:30:55.156Z,6.10
2022-10-10T00:33:23.037Z,6.30
2022-10-10T00:35:51.066Z,6.43
2022-10-10T00:38:18.885Z,6.20
2022-10-10T00:40:48.424Z,6.90
2022-10-10T00:43:19.263Z,5.77
2022-10-10T00:45:48.638Z,5.80
2022-10-10T00:48:19.175Z,5.97
2022-10-10T00:50:51.764Z,5.63
2022-10-10T00:53:24.393Z,6.20
2022-10-10T00:55:53.289Z,6.53
2022-10-10T00:58:23.256Z,6.17
2022-10-10T01:00:51.474Z,5.67
2022-10-10T01:03:19.768Z,6.00
2022-10-10T01:05:49.022Z,5.23
2022-10-10T01:08:17.860Z,6.20
2022-10-10T01:10:59.344Z,5.70
2022-10-10T01:13:35.369Z,6.87
2022-10-10T01:16:11.873Z,5.93
2022-10-10T01:18:46.293Z,6.50
2022-10-10T01:21:21.190Z,6.17
2022-10-10T01:24:12.152Z,5.97
2022-10-10T01:27:08.993Z,6.57
2022-10-10T01:29:43.625Z,6.20
2022-10-10T01:32:16.382Z,6.60
2022-10-10T01:34:56.749Z,6.27
2022-10-10T01:37:33.795Z,6.20
2022-10-10T01:40:09.114Z,6.40
2022-10-10T01:42:42.744Z,6.80
2022-10-10T01:45:12.106Z,5.90
2022-10-10T01:47:40.121Z,6.23
2022-10-10T01:50:12.617Z,6.10
2022-10-10T01:52:53.817Z,6.23
2022-10-10T01:55:34.637Z,6.27
2022-10-10T01:58:14.328Z,6.47
2022-10-10T02:00:48.815Z,5.63
2022-10-10T02:03:21.305Z,6.33
2022-10-10T02:05:54.176Z,5.77
2022-10-10T02:08:30.167Z,5.90
2022-10-10T02:11:02.209Z,5.73
2022-10-10T02:13:35.868Z,6.20
2022-10-10T02:16:09.493Z,6.77
2022-10-10T02:18:37.975Z,5.70
2022-10-10T02:21:09.427Z,6.03
2022-10-10T02:23:37.894Z,5.30
2022-10-10T02:26:05.720Z,6.00
2022-10-10T02:28:40.915Z,5.60
2022-10-10T02:31:15.457Z,5.70
2022-10-10T02:33:47.931Z,6.27
2022-10-10T02:36:17.949Z,5.90
2022-10-10T02:38:47.450Z,6.13
2022-10-10T02:41:18.779Z,6.70
2022-10-10T02:43:47.523Z,6.47
2022-10-10T02:46:16.964Z,6.50
2022-10-10T02:48:44.927Z,6.10
2022-10-10T02:51:14.014Z,5.80
2022-10-10T02:53:41.965Z,6.33
2022-10-10T02:56:10.026Z,6.00
2022-10-10T02:58:38.483Z,8.00
2022-10-10T03:01:06.649Z,6.60
2022-10-10T03:03:36.011Z,6.33
2022-10-10T03:06:05.059Z,6.20
2022-10-10T03:08:33.085Z,5.80
2022-10-10T03:11:02.563Z,6.30
2022-10-10T03:13:30.678Z,6.90
2022-10-10T03:15:58.791Z,6.10
2022-10-10T03:18:29.350Z,6.63
2022-10-10T03:20:58.646Z,5.83
2022-10-10T03:23:27.077Z,5.93
2022-10-10T03:25:55.388Z,7.27
2022-10-10T03:28:23.406Z,7.37
2022-10-10T03:30:51.370Z,7.10
2022-10-10T03:33:19.544Z,6.60
2022-10-10T03:35:47.429Z,6.50
2022-10-10T03:38:17.621Z,6.37
2022-10-10T03:40:46.096Z,5.90
2022-10-10T03:43:15.220Z,6.53
2022-10-10T03:45:44.236Z,6.63
2022-10-10T03:48:12.784Z,6.73
2022-10-10T03:50:40.806Z,6.43
2022-10-10T03:53:09.971Z,7.47
2022-10-10T03:55:41.846Z,7.53
2022-10-10T03:58:09.928Z,7.10
2022-10-10T04:00:37.902Z,7.37
2022-10-10T04:03:06.507Z,7.73
2022-10-10T04:05:35.633Z,7.10
2022-10-10T04:08:03.709Z,6.70
2022-10-10T04:10:31.724Z,6.00
2022-10-10T04:13:01.164Z,6.83
2022-10-10T04:15:29.239Z,7.00
2022-10-10T04:17:57.318Z,6.30
2022-10-10T04:20:25.767Z,7.13
2022-10-10T04:22:54.059Z,7.23
2022-10-10T04:25:22.362Z,6.30
2022-10-10T04:27:50.387Z,6.30
2022-10-10T04:30:19.769Z,5.93
2022-10-10T04:32:47.937Z,5.73
2022-10-10T04:35:15.905Z,6.20
2022-10-10T04:37:45.649Z,5.90
2022-10-10T04:40:13.698Z,6.30
2022-10-10T04:42:41.562Z,6.53
2022-10-10T04:45:10.419Z,6.73
2022-10-10T04:47:40.137Z,8.77
2022-10-10T04:50:08.681Z,8.03
2022-10-10T04:52:36.639Z,8.47
2022-10-10T04:55:05.032Z,7.63
2022-10-10T04:57:32.882Z,7.90
2022-10-10T05:00:00.742Z,7.10
2022-10-10T05:02:28.689Z,7.37
2022-10-10T05:04:57.874Z,12.70
2022-10-10T05:07:25.796Z,23.80
2022-10-10T05:09:54.126Z,10.90
2022-10-10T05:12:21.941Z,8.67
2022-10-10T05:14:49.748Z,8.73
2022-10-10T05:17:17.734Z,7.70
2022-10-10T05:19:45.644Z,8.30
2022-10-10T05:22:14.776Z,8.00
2022-10-10T05:24:42.597Z,8.00
2022-10-10T05:27:10.420Z,9.10
2022-10-10T05:29:39.137Z,8.27
2022-10-10T05:32:10.222Z,7.80
2022-10-10T05:34:38.703Z,8.93
2022-10-10T05:37:06.616Z,9.63
2022-10-10T05:39:36.190Z,8.37
2022-10-10T05:42:04.971Z,10.03
2022-10-10T05:44:33.736Z,9.20
2022-10-10T05:47:01.687Z,9.27
2022-10-10T05:49:29.595Z,9.63
2022-10-10T05:51:57.449Z,8.80
2022-10-10T05:54:25.289Z,20.83
2022-10-10T05:56:54.422Z,29.50
2022-10-10T05:59:22.350Z,19.50
2022-10-10T06:01:50.307Z,14.40
2022-10-10T06:04:18.439Z,11.80
2022-10-10T06:06:46.766Z,10.17
2022-10-10T06:09:14.666Z,8.73
2022-10-10T06:11:42.778Z,9.03
2022-10-10T06:14:12.053Z,9.07
2022-10-10T06:16:40.385Z,8.97
2022-10-10T06:19:12.541Z,9.07
2022-10-10T06:21:42.521Z,8.90
2022-10-10T06:24:10.921Z,9.07
2022-10-10T06:26:38.849Z,8.67
2022-10-10T06:29:07.359Z,9.43
2022-10-10T06:31:39.408Z,9.50
2022-10-10T06:34:07.289Z,8.90
2022-10-10T06:36:35.448Z,9.07
2022-10-10T06:39:03.311Z,9.07
2022-10-10T06:41:31.197Z,8.87
2022-10-10T06:43:59.075Z,9.93
2022-10-10T06:46:26.917Z,8.60
2022-10-10T06:48:56.041Z,9.37
2022-10-10T06:51:25.680Z,8.40
2022-10-10T06:53:53.470Z,8.73
2022-10-10T06:56:27.201Z,9.80
2022-10-10T06:58:56.208Z,9.10
2022-10-10T07:01:25.553Z,9.00
2022-10-10T07:03:53.576Z,9.13
2022-10-10T07:06:22.899Z,9.10
2022-10-10T07:08:50.909Z,9.20
2022-10-10T07:11:18.739Z,8.63
2022-10-10T07:13:46.572Z,8.03
2022-10-10T07:16:14.393Z,8.47
2022-10-10T07:18:42.212Z,10.80
2022-10-10T07:21:11.063Z,7.73
2022-10-10T07:23:40.209Z,7.97
2022-10-10T07:26:11.746Z,7.40
2022-10-10T07:28:40.503Z,7.83
2022-10-10T07:31:10.352Z,15.40
2022-10-10T07:33:40.039Z,7.90
2022-10-10T07:36:08.610Z,7.10
2022-10-10T07:38:37.885Z,7.23
2022-10-10T07:41:08.136Z,7.03
2022-10-10T07:43:37.211Z,7.67
2022-10-10T07:46:08.220Z,7.10
2022-10-10T07:48:39.144Z,6.70
2022-10-10T07:51:07.401Z,7.57
2022-10-10T07:53:35.260Z,7.53
2022-10-10T07:56:05.432Z,7.10
2022-10-10T07:58:35.473Z,6.73
2022-10-10T08:01:04.389Z,6.70
2022-10-10T08:03:32.221Z,6.30
2022-10-10T08:06:00.192Z,7.13
2022-10-10T08:08:28.355Z,6.50
2022-10-10T08:10:56.188Z,6.90
2022-10-10T08:13:24.020Z,7.00
2022-10-10T08:15:53.195Z,6.90
2022-10-10T08:18:21.182Z,6.53
2022-10-10T08:20:49.023Z,7.30
2022-10-10T08:23:17.634Z,6.53
2022-10-10T08:25:47.243Z,6.43
2022-10-10T08:28:15.045Z,6.03
2022-10-10T08:30:42.880Z,7.27
2022-10-10T08:33:12.069Z,8.67
2022-10-10T08:35:40.205Z,6.20
2022-10-10T08:38:08.940Z,6.37
2022-10-10T08:40:43.369Z,6.20
2022-10-10T08:43:21.388Z,5.53
2022-10-10T08:45:50.631Z,4.60
2022-10-10T08:48:25.688Z,5.37
2022-10-10T08:51:00.661Z,5.10
2022-10-10T08:53:32.844Z,5.63
2022-10-10T08:56:01.632Z,7.17
2022-10-10T08:58:34.141Z,5.70
2022-10-10T09:01:10.132Z,5.37
2022-10-10T09:03:44.207Z,4.90
2022-10-10T09:06:25.756Z,4.53
2022-10-10T09:09:01.987Z,4.90
2022-10-10T09:11:42.499Z,4.77
2022-10-10T09:14:21.195Z,4.80
2022-10-10T09:16:56.107Z,5.03
2022-10-10T09:19:38.208Z,6.33
2022-10-10T09:22:12.062Z,4.87
2022-10-10T09:24:46.212Z,4.50
2022-10-10T09:27:17.713Z,8.57
2022-10-10T09:29:50.547Z,4.40
2022-10-10T09:32:23.439Z,4.43
2022-10-10T09:34:55.780Z,4.30
2022-10-10T09:37:46.242Z,6.23
2022-10-10T09:40:22.369Z,4.50
2022-10-10T09:42:50.240Z,7.30
2022-10-10T09:45:20.680Z,5.13
2022-10-10T09:47:52.432Z,4.93
2022-10-10T09:50:21.961Z,4.67
2022-10-10T09:52:50.721Z,4.20
2022-10-10T09:55:26.919Z,4.30
2022-10-10T09:57:57.723Z,4.70
2022-10-10T10:00:29.213Z,4.13
2022-10-10T10:03:15.081Z,5.03
2022-10-10T10:05:47.101Z,4.53
2022-10-10T10:08:25.143Z,4.53
2022-10-10T10:10:57.852Z,4.63
2022-10-10T10:13:28.814Z,4.33
2022-10-10T10:16:03.463Z,4.67
2022-10-10T10:18:32.520Z,4.60
2022-10-10T10:21:23.622Z,4.60
2022-10-10T10:23:54.737Z,4.00
2022-10-10T10:26:25.338Z,5.23
2022-10-10T10:28:53.998Z,4.17
2022-10-10T10:31:35.484Z,5.40
2022-10-10T10:34:13.704Z,3.80
2022-10-10T10:36:52.818Z,4.40
2022-10-10T10:39:36.598Z,4.63
2022-10-10T10:42:15.237Z,4.30
2022-10-10T10:44:49.340Z,4.50
2022-10-10T10:50:26.677Z,5.40
2022-10-10T10:53:02.501Z,5.10
2022-10-10T10:55:39.408Z,5.50
2022-10-10T10:59:05.795Z,5.93
2022-10-10T11:01:45.098Z,5.63
2022-10-10T11:05:24.833Z,6.43
2022-10-10T11:07:20.317Z,5.50
2022-10-10T11:09:56.965Z,5.97
2022-10-10T11:12:48.142Z,6.10
2022-10-10T11:15:20.556Z,6.77
2022-10-10T11:17:54.245Z,5.93
2022-10-10T11:20:29.541Z,5.70
2022-10-10T11:23:06.619Z,5.90
2022-10-10T11:25:43.954Z,5.30
2022-10-10T11:28:16.754Z,5.77
2022-10-10T11:30:50.554Z,6.33
2022-10-10T11:33:23.485Z,5.93
2022-10-10T11:35:56.096Z,6.00
2022-10-10T11:38:30.212Z,5.13
2022-10-10T11:41:02.712Z,4.80
2022-10-10T11:43:39.421Z,4.90
2022-10-10T11:46:15.918Z,5.97
2022-10-10T11:48:52.200Z,5.00
2022-10-10T11:51:31.469Z,5.30
2022-10-10T11:54:05.821Z,5.50
2022-10-10T11:56:39.076Z,5.13
2022-10-10T11:59:12.804Z,5.57
2022-10-10T12:01:47.642Z,5.53
2022-10-10T12:04:15.523Z,4.90
2022-10-10T12:06:48.319Z,5.03
2022-10-10T12:09:22.582Z,5.00
2022-10-10T12:11:57.032Z,5.13
2022-10-10T12:14:27.749Z,5.30
2022-10-10T12:16:57.263Z,5.27
2022-10-10T12:19:27.886Z,5.40
2022-10-10T12:21:59.268Z,5.30
2022-10-10T12:24:29.022Z,9.80
2022-10-10T12:27:30.679Z,11.07
2022-10-10T12:30:31.853Z,8.27
2022-10-10T12:33:00.029Z,9.23
2022-10-10T12:35:31.292Z,9.30
2022-10-10T12:38:29.350Z,6.73
2022-10-10T12:41:15.045Z,5.60
2022-10-10T12:44:20.710Z,6.40
2022-10-10T12:47:08.871Z,6.40
2022-10-10T12:49:36.908Z,5.77
2022-10-10T12:52:13.155Z,5.50
2022-10-10T12:54:44.104Z,5.80
2022-10-10T12:57:20.652Z,8.50
2022-10-10T12:59:49.955Z,5.63
2022-10-10T13:02:23.058Z,5.90
2022-10-10T13:04:54.535Z,5.93
2022-10-10T13:07:23.925Z,5.10
2022-10-10T13:09:54.349Z,6.40
2022-10-10T13:12:25.325Z,6.57
2022-10-10T13:14:55.165Z,5.60
2022-10-10T13:17:26.547Z,6.40
2022-10-10T13:19:55.829Z,5.20
2022-10-10T13:22:25.602Z,5.80
2022-10-10T13:24:54.253Z,5.93
2022-10-10T13:27:25.276Z,6.70
2022-10-10T13:29:55.733Z,5.60
2022-10-10T13:32:27.669Z,5.23
2022-10-10T13:34:58.204Z,5.63
2022-10-10T13:37:27.151Z,5.90
2022-10-10T13:39:55.441Z,6.60
2022-10-10T13:42:35.365Z,6.40
2022-10-10T13:45:31.746Z,5.37
2022-10-10T13:48:17.783Z,5.83
2022-10-10T13:50:57.653Z,6.80
2022-10-10T13:53:37.502Z,6.40
2022-10-10T13:56:11.608Z,5.60
2022-10-10T13:58:43.378Z,7.33
2022-10-10T14:01:23.576Z,5.67
2022-10-10T14:03:54.584Z,5.87
2022-10-10T14:06:26.473Z,5.60
2022-10-10T14:08:57.931Z,6.60
2022-10-10T14:11:28.703Z,7.17
2022-10-10T14:14:01.392Z,6.33
2022-10-10T14:16:30.718Z,6.43
2022-10-10T14:18:58.555Z,6.33
2022-10-10T14:21:26.795Z,8.87
2022-10-10T14:23:54.644Z,13.27
2022-10-10T14:26:22.902Z,10.00
2022-10-10T14:28:50.873Z,7.17
2022-10-10T14:31:19.393Z,6.50
2022-10-10T14:33:48.559Z,6.20
2022-10-10T14:36:16.371Z,6.37
2022-10-10T14:38:44.230Z,6.93
2022-10-10T14:41:14.044Z,14.00
2022-10-10T14:43:45.757Z,23.40
2022-10-10T14:46:18.164Z,18.20
2022-10-10T14:48:46.979Z,10.70
2022-10-10T14:51:34.260Z,8.10
2022-10-10T14:54:12.025Z,7.60
2022-10-10T14:57:07.943Z,6.17
2022-10-10T14:59:46.480Z,6.90
2022-10-10T15:02:16.786Z,21.57
2022-10-10T15:04:44.597Z,22.10
2022-10-10T15:07:15.138Z,14.00
2022-10-10T15:10:02.553Z,9.57
2022-10-10T15:12:31.494Z,7.40
2022-10-10T15:14:59.313Z,10.47
2022-10-10T15:17:27.300Z,6.77
2022-10-10T15:19:55.259Z,6.60
2022-10-10T15:22:24.479Z,6.00
2022-10-10T15:24:52.342Z,39.07
2022-10-10T15:27:20.187Z,39.30
2022-10-10T15:29:48.117Z,15.90
2022-10-10T15:32:15.972Z,10.87
2022-10-10T15:34:43.829Z,8.07
2022-10-10T15:37:11.662Z,8.60
2022-10-10T15:39:41.274Z,6.87
2022-10-10T15:42:15.000Z,6.40
2022-10-10T15:44:47.296Z,5.53
2022-10-10T15:47:16.850Z,7.30
2022-10-10T15:49:44.755Z,8.23
2022-10-10T15:52:12.548Z,7.57
2022-10-10T15:54:42.348Z,8.60
2022-10-10T15:57:10.192Z,7.10
2022-10-10T15:59:40.539Z,7.03
2022-10-10T16:02:11.803Z,7.20
2022-10-10T16:04:39.969Z,5.80
2022-10-10T16:09:57.836Z,7.23
2022-10-10T16:12:25.645Z,8.03
2022-10-10T16:14:53.460Z,7.97
2022-10-10T16:17:23.583Z,8.03
2022-10-10T16:19:52.189Z,9.40
2022-10-10T16:22:20.250Z,8.40
2022-10-10T16:25:10.271Z,8.33
2022-10-10T16:27:38.590Z,7.40
2022-10-10T16:30:08.148Z,7.13
2022-10-10T16:32:41.047Z,5.00
2022-10-10T16:35:11.190Z,5.60
2022-10-10T16:37:39.331Z,6.47
2022-10-10T16:40:08.321Z,7.17
2022-10-10T16:42:37.533Z,6.20
2022-10-10T16:45:06.400Z,5.63
2022-10-10T16:47:34.639Z,6.43
2022-10-10T16:50:02.438Z,6.60
2022-10-10T16:52:30.417Z,12.00
2022-10-10T16:54:58.211Z,5.40
2022-10-10T16:57:26.191Z,13.40
2022-10-10T16:59:55.356Z,10.83
2022-10-10T17:02:24.481Z,9.90
2022-10-10T17:04:53.150Z,5.80
2022-10-10T17:07:20.957Z,5.33
2022-10-10T17:09:48.746Z,6.90
2022-10-10T17:12:16.863Z,14.07
2022-10-10T17:14:44.684Z,7.87
2022-10-10T17:17:14.196Z,4.90
2022-10-10T17:19:42.096Z,4.67
2022-10-10T17:22:09.999Z,4.90
2022-10-10T17:24:38.029Z,4.63
2022-10-10T17:27:06.051Z,5.93
2022-10-10T17:29:33.885Z,5.17
2022-10-10T17:32:06.012Z,4.90
2022-10-10T17:34:36.582Z,6.90
2022-10-10T17:37:05.155Z,4.77
2022-10-10T17:39:33.034Z,4.90
2022-10-10T17:42:01.216Z,5.10
2022-10-10T17:44:29.080Z,4.67
2022-10-10T17:46:56.961Z,5.77
2022-10-10T17:49:25.049Z,5.00
2022-10-10T17:51:54.232Z,4.37
2022-10-10T17:54:22.109Z,4.73
2022-10-10T17:56:49.916Z,4.27
2022-10-10T17:59:17.804Z,5.20
2022-10-10T18:01:45.769Z,4.80
2022-10-10T18:04:15.777Z,4.30
2022-10-10T18:06:43.584Z,4.27
2022-10-10T18:09:12.768Z,4.40
2022-10-10T18:11:40.535Z,4.70
2022-10-10T18:14:08.322Z,6.67
2022-10-10T18:16:36.230Z,8.47
2022-10-10T18:19:07.314Z,6.27
2022-10-10T18:21:35.845Z,5.80
2022-10-10T18:24:03.805Z,6.47
2022-10-10T18:26:34.818Z,7.23
2022-10-10T18:29:02.919Z,7.10
2022-10-10T18:31:33.276Z,5.80
2022-10-10T18:34:02.312Z,5.57
2022-10-10T18:36:33.074Z,6.57
2022-10-10T18:39:02.352Z,8.20
2022-10-10T18:41:34.174Z,7.30
2022-10-10T18:44:05.122Z,8.57
2022-10-10T18:46:33.486Z,8.37
2022-10-10T18:49:01.837Z,8.63
2022-10-10T18:51:30.645Z,9.40
2022-10-10T18:54:02.123Z,9.73
2022-10-10T18:56:30.949Z,10.20
2022-10-10T18:59:01.057Z,9.97
2022-10-10T19:01:35.124Z,10.70
2022-10-10T19:04:04.069Z,11.80
2022-10-10T19:06:32.362Z,12.10
2022-10-10T19:09:01.708Z,13.30
2022-10-10T19:11:31.345Z,10.90
2022-10-10T19:14:00.896Z,10.50
2022-10-10T19:16:30.303Z,9.47
2022-10-10T19:18:59.372Z,9.40
2022-10-10T19:21:28.944Z,10.87
2022-10-10T19:23:57.028Z,12.23
2022-10-10T19:26:24.831Z,21.20
2022-10-10T19:28:52.964Z,13.57
2022-10-10T19:31:21.407Z,13.53
2022-10-10T19:33:53.722Z,12.50
2022-10-10T19:36:21.509Z,13.23
2022-10-10T19:38:49.377Z,13.23
2022-10-10T19:41:17.583Z,14.50
2022-10-10T19:43:48.964Z,13.57
2022-10-10T19:46:19.056Z,14.87
2022-10-10T19:48:46.922Z,14.80
2022-10-10T19:51:18.242Z,16.43
2022-10-10T19:53:46.338Z,14.47
2022-10-10T19:56:16.122Z,16.27
2022-10-10T19:58:44.388Z,19.67
2022-10-10T20:01:14.926Z,16.97
2022-10-10T20:03:43.143Z,17.77
2022-10-10T20:06:11.789Z,17.70
2022-10-10T20:08:41.999Z,15.93
2022-10-10T20:11:10.763Z,14.53
2022-10-10T20:13:38.718Z,14.80
2022-10-10T20:16:09.592Z,13.67
2022-10-10T20:18:38.947Z,13.90
2022-10-10T20:21:17.143Z,14.43
2022-10-10T20:23:47.853Z,12.63
2022-10-10T20:26:20.071Z,13.33
2022-10-10T20:28:48.048Z,13.30
2022-10-10T20:31:19.942Z,10.80
2022-10-10T20:33:49.024Z,12.77
2022-10-10T20:36:17.599Z,10.17
2022-10-10T20:38:52.420Z,9.07
2022-10-10T20:41:20.332Z,9.10
2022-10-10T20:43:48.372Z,9.20
2022-10-10T20:46:16.765Z,8.70
2022-10-10T20:48:44.605Z,9.90
2022-10-10T20:51:14.399Z,10.50
2022-10-10T20:53:42.800Z,10.80
2022-10-10T20:56:13.451Z,10.77
2022-10-10T20:58:41.847Z,9.47
2022-10-10T21:01:11.815Z,10.00
2022-10-10T21:03:40.274Z,10.37
2022-10-10T21:06:11.261Z,12.50
2022-10-10T21:08:39.693Z,12.90
2022-10-10T21:11:09.383Z,12.80
2022-10-10T21:13:40.193Z,13.40
2022-10-10T21:16:10.494Z,12.23
2022-10-10T21:18:38.486Z,12.27
2022-10-10T21:21:07.483Z,12.20
2022-10-10T21:23:37.928Z,10.73
2022-10-10T21:26:08.000Z,11.20
2022-10-10T21:28:36.711Z,9.80
2022-10-10T21:31:06.612Z,10.70
2022-10-10T21:33:35.639Z,10.47
2022-10-10T21:36:03.927Z,11.10
2022-10-10T21:38:32.280Z,10.73
2022-10-10T21:41:06.553Z,10.20
2022-10-10T21:43:34.921Z,10.07
2022-10-10T21:46:04.540Z,11.33
2022-10-10T21:48:34.191Z,10.63
2022-10-10T21:51:02.040Z,11.10
2022-10-10T21:53:29.841Z,11.83
2022-10-10T21:55:57.962Z,10.10
2022-10-10T21:58:26.664Z,10.87
2022-10-10T22:00:54.616Z,11.30
2022-10-10T22:03:22.442Z,11.50
2022-10-10T22:05:51.547Z,11.10
2022-10-10T22:08:19.349Z,11.03
2022-10-10T22:10:47.145Z,12.77
2022-10-10T22:13:14.942Z,12.20
2022-10-10T22:15:43.015Z,11.37
2022-10-10T22:18:10.900Z,13.23
2022-10-10T22:20:38.688Z,11.73
2022-10-10T22:23:07.833Z,13.10
2022-10-10T22:25:35.612Z,11.83
2022-10-10T22:28:06.244Z,11.37
2022-10-10T22:30:34.339Z,11.37
2022-10-10T22:33:02.254Z,11.27
2022-10-10T22:35:30.174Z,10.83
2022-10-10T22:37:58.006Z,11.27
2022-10-10T22:40:27.878Z,10.87
2022-10-10T22:42:55.790Z,11.67
2022-10-10T22:45:24.250Z,11.37
2022-10-10T22:47:52.231Z,11.40
2022-10-10T22:50:20.457Z,11.83
2022-10-10T22:52:48.337Z,12.20
2022-10-10T22:55:18.693Z,10.90
2022-10-10T22:57:48.253Z,12.27
2022-10-10T23:00:17.235Z,10.80
2022-10-10T23:02:45.228Z,12.63
2022-10-10T23:05:13.233Z,11.67
2022-10-10T23:07:41.060Z,11.23
2022-10-10T23:10:10.166Z,11.03
2022-10-10T23:12:38.610Z,10.87
2022-10-10T23:15:08.822Z,11.07
2022-10-10T23:17:39.183Z,10.57
2022-10-10T23:20:08.460Z,11.10
2022-10-10T23:22:36.437Z,10.17
2022-10-10T23:25:04.733Z,10.67
2022-10-10T23:27:32.561Z,10.77
2022-10-10T23:30:00.351Z,10.90
2022-10-10T23:32:30.331Z,10.97
2022-10-10T23:34:58.101Z,11.37
2022-10-10T23:37:27.630Z,10.93
2022-10-10T23:39:55.476Z,10.40
2022-10-10T23:42:23.324Z,10.90
2022-10-10T23:44:51.165Z,10.67
2022-10-10T23:47:19.049Z,10.13
2022-10-10T23:49:48.253Z,9.73
2022-10-10T23:52:16.147Z,9.87
2022-10-10T23:54:43.969Z,11.00
2022-10-10T23:57:11.771Z,9.83
2022-10-10T23:59:39.632Z,9.33
